Enter the Airport ICAO Code

Search by Airport or City

Current Weather

LPMA | Madeira Airport

Funchal, Madeira, Portugal

Last Update 27 Minutes Ago

Sky with Few Clouds

Temperature of 23 ºC

Light Winds from SouthWest

Temperature

23 ºC

Dew Point Temperature

17 ºC

Relative Humidity

69.12 %

Wind Direction

SouthWest (240º, Ranging from 180º to 310º)

Wind Velocity

7 km/h (04 kt)

Gusts

None

Visibility

Greater than 10 Kilometers

Sea Level Pressure

1021 hPa (Hectopascals)

Layers of Clouds

5% to 30% of Sky Covered from 457 mts (1500 ft) Above Ground Level.

METAR LPMA 131000Z 24004KT 180V310 9999 FEW015 23/17 Q1021

Weather Forecast

LPMA | Madeira Airport

Funchal, Madeira, Portugal

Forecast valid for the next 20 Hours

In the next 2 hours it is expected the begining of:

Light to Moderate Winds from Variable Directions

In 2 hours it is expected the begining of 7 hours with intermittent periods of:

Moderate Winds from North with Gusts

In 9 to 12 hours it is expected the begining of:

Moderate Winds from North

Maximum Temperature

No Data

Minimum Temperature

No Data

TAF LPMA 130500Z 1306/1406 36015KT 9999 FEW015 TEMPO 1306/1309 VRB05KT PROB40 TEMPO 1306/1309 01018G30KT BKN014 BECMG 1309/1312 VRB08KT TEMPO 1312/1319 02015G27KT BECMG 1319/1322 01015KT